East Bend, North Carolina
Current Conditions -  °F | °C
As of 1:54 PM on Friday 28 Nov 2014 (Local Time) from KINT Reporting Station
Clear Clear  
Wind Chill: 36°   Ceiling: Unl
Heat Index: 41°   Visibility: 10mi
Dew Point: 17°   Wind: 7mph
Humidity: 38%   Direction: NA
Pressure: 30.28"   Gusts: NA
Location:  36.22°N, 80.51°W
Report Text: KINT 281854Z VRB06KT 10SM CLR 05/M08 A3028 RMK AO2 SLP259 T00501083
Loading
Personal Weather Stations






























Interactive Weather Map New forecast layout! Learn more

10-Day Weather Forecast

Advertisements
Track Severe Weather on mobile